createdAt,value
2022-12-03T00:55:36.812Z,-18.85
2022-12-03T00:59:06.057Z,-18.83
2022-12-03T01:02:18.389Z,-18.67
2022-12-03T01:05:30.077Z,-18.62
2022-12-03T01:08:42.642Z,-18.59
2022-12-03T01:11:55.668Z,-18.60
2022-12-03T01:15:14.936Z,-18.53
2022-12-03T01:18:33.795Z,-18.52
2022-12-03T01:22:02.912Z,-18.41
2022-12-03T01:25:27.816Z,-18.44
2022-12-03T01:28:54.146Z,-18.35
2022-12-03T01:32:25.502Z,-18.13
2022-12-03T01:35:53.901Z,-17.91
2022-12-03T01:39:19.603Z,-17.85
2022-12-03T01:42:49.843Z,-17.77
2022-12-03T01:46:16.656Z,-17.77
2022-12-03T01:49:56.441Z,-17.70
2022-12-03T01:53:49.537Z,-17.76
2022-12-03T01:57:09.079Z,-17.56
2022-12-03T02:00:24.261Z,-17.45
2022-12-03T02:03:39.914Z,-17.37
2022-12-03T02:06:51.153Z,-17.31
2022-12-03T02:09:58.130Z,-17.13
2022-12-03T02:13:11.926Z,-16.97
2022-12-03T02:16:39.574Z,-16.85
2022-12-03T02:19:50.308Z,-16.78
2022-12-03T02:23:19.774Z,-16.61
2022-12-03T02:26:23.154Z,-16.56
2022-12-03T02:29:26.746Z,-16.37
2022-12-03T02:32:30.137Z,-16.17
2022-12-03T02:35:36.841Z,-16.06
2022-12-03T02:38:42.327Z,-15.89
2022-12-03T02:42:04.421Z,-15.82
2022-12-03T02:45:11.279Z,-15.76
2022-12-03T02:48:20.196Z,-15.43
2022-12-03T02:51:24.747Z,-15.36
2022-12-03T02:54:28.504Z,-15.16
2022-12-03T02:57:31.945Z,-14.75
2022-12-03T03:00:36.724Z,-14.65
2022-12-03T03:03:41.164Z,-14.91
2022-12-03T03:06:45.218Z,-15.03
2022-12-03T03:09:48.853Z,-14.81
2022-12-03T03:12:54.774Z,-14.58
2022-12-03T03:15:59.155Z,-14.51
2022-12-03T03:19:03.249Z,-14.39
2022-12-03T03:22:07.427Z,-14.01
2022-12-03T03:25:21.973Z,-13.67
2022-12-03T03:28:33.880Z,-13.18
2022-12-03T03:31:43.571Z,-12.88
2022-12-03T03:34:48.369Z,-12.68
2022-12-03T03:37:52.535Z,-12.49
2022-12-03T03:40:58.837Z,-12.74
2022-12-03T03:44:02.044Z,-12.92
2022-12-03T03:47:07.555Z,-12.88
2022-12-03T03:50:13.712Z,-12.56
2022-12-03T03:53:18.695Z,-12.73
2022-12-03T03:56:23.502Z,-12.83
2022-12-03T03:59:27.277Z,-12.91
2022-12-03T04:02:33.052Z,-12.83
2022-12-03T04:05:36.015Z,-12.75
2022-12-03T04:08:39.390Z,-12.40
2022-12-03T04:12:01.634Z,-12.29
2022-12-03T04:15:06.452Z,-11.98
2022-12-03T04:18:28.092Z,-11.87
2022-12-03T04:21:49.897Z,-12.16
2022-12-03T04:25:13.499Z,-12.49
2022-12-03T04:28:35.661Z,-12.91
2022-12-03T04:32:17.435Z,-12.81
2022-12-03T04:35:39.959Z,-12.63
2022-12-03T04:38:44.935Z,-12.63
2022-12-03T04:41:49.061Z,-12.50
2022-12-03T04:44:53.106Z,-12.68
2022-12-03T04:47:56.875Z,-12.71
2022-12-03T04:51:00.773Z,-12.77
2022-12-03T04:54:04.511Z,-12.80
2022-12-03T04:57:08.421Z,-12.66
2022-12-03T05:00:12.132Z,-12.60
2022-12-03T05:03:16.191Z,-12.43
2022-12-03T05:06:19.383Z,-12.70
2022-12-03T05:09:22.941Z,-12.88
2022-12-03T05:12:26.642Z,-13.12
2022-12-03T05:15:30.220Z,-13.04
2022-12-03T05:18:33.131Z,-12.96
2022-12-03T05:21:36.757Z,-12.83
2022-12-03T05:24:40.415Z,-12.77
2022-12-03T05:27:44.354Z,-12.74
2022-12-03T05:30:48.176Z,-12.78
2022-12-03T05:33:52.477Z,-12.64
2022-12-03T05:36:56.243Z,-12.71
2022-12-03T05:40:02.599Z,-12.71
2022-12-03T05:43:06.034Z,-12.73
2022-12-03T05:46:09.380Z,-12.87
2022-12-03T05:49:13.028Z,-12.89
2022-12-03T05:52:17.052Z,-13.06
2022-12-03T05:55:20.591Z,-12.84
2022-12-03T05:58:23.744Z,-12.83
2022-12-03T06:01:26.760Z,-12.75
2022-12-03T06:04:30.664Z,-12.66
2022-12-03T06:07:33.998Z,-12.56
2022-12-03T06:10:38.387Z,-12.49
2022-12-03T06:13:41.632Z,-12.37
2022-12-03T06:16:45.004Z,-12.33
2022-12-03T06:19:48.191Z,-12.22
2022-12-03T06:22:51.418Z,-12.24
2022-12-03T06:25:54.449Z,-12.26
2022-12-03T06:28:58.161Z,-12.18
2022-12-03T06:32:01.098Z,-12.12
2022-12-03T06:35:04.512Z,-12.08
2022-12-03T06:38:07.764Z,-12.07
2022-12-03T06:41:11.791Z,-11.97
2022-12-03T06:44:15.901Z,-12.07
2022-12-03T06:47:19.603Z,-12.15
2022-12-03T06:50:23.315Z,-12.21
2022-12-03T06:53:27.138Z,-12.28
2022-12-03T06:56:35.864Z,-12.40
2022-12-03T06:59:41.226Z,-12.40
2022-12-03T07:02:45.329Z,-12.40
2022-12-03T07:05:49.797Z,-12.52
2022-12-03T07:08:53.236Z,-12.54
2022-12-03T07:11:57.387Z,-12.54
2022-12-03T07:15:00.473Z,-12.73
2022-12-03T07:18:05.600Z,-12.80
2022-12-03T07:21:08.797Z,-12.92
2022-12-03T07:24:13.257Z,-12.92
2022-12-03T07:27:17.037Z,-12.96
2022-12-03T07:30:20.558Z,-13.01
2022-12-03T07:33:24.480Z,-12.98
2022-12-03T07:36:28.185Z,-12.91
2022-12-03T07:39:32.150Z,-12.89
2022-12-03T07:42:37.847Z,-12.88
2022-12-03T07:45:41.016Z,-12.88
2022-12-03T07:48:44.738Z,-12.84
2022-12-03T07:51:54.493Z,-12.74
2022-12-03T07:54:58.557Z,-12.57
2022-12-03T07:58:02.487Z,-12.59
2022-12-03T08:01:05.937Z,-12.70
2022-12-03T08:04:10.268Z,-12.78
2022-12-03T08:07:13.885Z,-12.83
2022-12-03T08:10:18.001Z,-12.91
2022-12-03T08:13:20.858Z,-13.06
2022-12-03T08:16:24.808Z,-13.22
2022-12-03T08:19:28.535Z,-13.43
2022-12-03T08:22:34.913Z,-13.48
2022-12-03T08:25:38.538Z,-13.64
2022-12-03T08:28:41.930Z,-13.79
2022-12-03T08:31:52.550Z,-13.85
2022-12-03T08:34:56.120Z,-14.02
2022-12-03T08:38:10.520Z,-14.15
2022-12-03T08:41:16.966Z,-14.26
2022-12-03T08:44:43.243Z,-14.29
2022-12-03T08:47:47.154Z,-14.34
2022-12-03T08:50:50.881Z,-14.33
2022-12-03T08:54:18.638Z,-14.39
2022-12-03T08:57:31.681Z,-14.41
2022-12-03T09:00:34.678Z,-14.44
2022-12-03T09:03:40.893Z,-14.41
2022-12-03T09:06:44.526Z,-14.40
2022-12-03T09:09:48.122Z,-14.46
2022-12-03T09:12:51.722Z,-14.51
2022-12-03T09:15:54.766Z,-14.48
2022-12-03T09:18:58.352Z,-14.46
2022-12-03T09:22:01.303Z,-14.43
2022-12-03T09:25:04.420Z,-14.41
2022-12-03T09:28:09.176Z,-14.34
2022-12-03T09:31:12.902Z,-14.32
2022-12-03T09:34:16.511Z,-14.26
2022-12-03T09:37:20.139Z,-14.19
2022-12-03T09:40:24.133Z,-14.13
2022-12-03T09:43:49.477Z,-14.12
2022-12-03T09:46:54.499Z,-14.15
2022-12-03T09:49:59.021Z,-14.13
2022-12-03T09:53:04.438Z,-14.10
2022-12-03T09:56:16.660Z,-14.15
2022-12-03T09:59:21.608Z,-14.19
2022-12-03T10:02:30.624Z,-14.19
2022-12-03T10:05:35.349Z,-14.15
2022-12-03T10:08:39.041Z,-14.13
2022-12-03T10:11:43.020Z,-14.16
2022-12-03T10:14:47.277Z,-14.22
2022-12-03T10:17:52.842Z,-14.26
2022-12-03T10:20:57.020Z,-14.30
2022-12-03T10:24:21.146Z,-14.30
2022-12-03T10:27:31.048Z,-14.36
2022-12-03T10:30:34.411Z,-14.40
2022-12-03T10:33:40.449Z,-14.37
2022-12-03T10:36:44.423Z,-14.40
2022-12-03T10:39:59.425Z,-14.46
2022-12-03T10:43:25.243Z,-14.43
2022-12-03T10:46:29.123Z,-14.46
2022-12-03T10:49:32.865Z,-14.46
2022-12-03T10:52:37.520Z,-14.44
2022-12-03T10:55:44.016Z,-14.47
2022-12-03T10:58:47.780Z,-14.43
2022-12-03T11:01:53.956Z,-14.47
2022-12-03T11:04:57.895Z,-14.47
2022-12-03T11:08:01.283Z,-14.51
2022-12-03T11:11:08.079Z,-14.56
2022-12-03T11:14:13.961Z,-14.57
2022-12-03T11:17:43.306Z,-14.53
2022-12-03T11:21:12.065Z,-14.51
2022-12-03T11:24:25.987Z,-14.53
2022-12-03T11:27:29.434Z,-14.51
2022-12-03T11:30:51.343Z,-14.48
2022-12-03T11:34:20.567Z,-14.47
2022-12-03T11:37:26.003Z,-14.46
2022-12-03T11:40:33.489Z,-14.44
2022-12-03T11:43:53.646Z,-14.48
2022-12-03T11:46:59.480Z,-14.44
2022-12-03T11:50:13.218Z,-14.46
2022-12-03T11:53:26.449Z,-14.47
2022-12-03T11:56:30.977Z,-14.48
2022-12-03T11:59:34.716Z,-14.51
2022-12-03T12:02:38.654Z,-14.53
2022-12-03T12:05:42.462Z,-14.51
2022-12-03T12:08:52.546Z,-14.54
2022-12-03T12:11:56.456Z,-14.54
2022-12-03T12:15:00.804Z,-14.53
2022-12-03T12:18:40.127Z,-14.68
2022-12-03T12:21:49.110Z,-14.81
2022-12-03T12:25:01.351Z,-14.95
2022-12-03T12:28:05.066Z,-15.09
2022-12-03T12:31:12.608Z,-15.13
2022-12-03T12:34:17.272Z,-15.15
2022-12-03T12:37:24.255Z,-15.17
2022-12-03T12:40:30.904Z,-15.20
2022-12-03T12:43:36.582Z,-15.24
2022-12-03T12:47:02.431Z,-15.26
2022-12-03T12:50:16.461Z,-15.26
2022-12-03T12:53:27.559Z,-15.23
2022-12-03T12:56:35.915Z,-15.26
2022-12-03T12:59:41.526Z,-15.27
2022-12-03T13:02:57.802Z,-15.27
2022-12-03T13:06:03.598Z,-15.30
2022-12-03T13:09:36.678Z,-15.31
2022-12-03T13:12:40.454Z,-15.31
2022-12-03T13:15:54.628Z,-15.30
2022-12-03T13:19:00.912Z,-15.27
2022-12-03T13:22:15.871Z,-15.33
2022-12-03T13:25:59.174Z,-15.34
2022-12-03T13:29:07.504Z,-15.36
2022-12-03T13:32:36.861Z,-15.37
2022-12-03T13:35:40.609Z,-15.41
2022-12-03T13:38:45.888Z,-15.43
2022-12-03T13:42:09.200Z,-15.41
2022-12-03T13:45:16.262Z,-15.43
2022-12-03T13:48:24.201Z,-15.34
2022-12-03T13:51:33.570Z,-15.26
2022-12-03T13:54:39.814Z,-15.22
2022-12-03T13:57:43.696Z,-15.19
2022-12-03T14:00:47.579Z,-15.17
2022-12-03T14:03:51.921Z,-15.17
2022-12-03T14:06:55.651Z,-15.13
2022-12-03T14:09:59.276Z,-15.15
2022-12-03T14:13:02.981Z,-15.17
2022-12-03T14:16:07.138Z,-15.19
2022-12-03T14:19:10.815Z,-15.19
2022-12-03T14:22:14.738Z,-15.24
2022-12-03T14:25:18.351Z,-15.22
2022-12-03T14:28:22.408Z,-15.24
2022-12-03T14:31:28.747Z,-15.31
2022-12-03T14:34:32.812Z,-15.22
2022-12-03T14:37:36.514Z,-15.20
2022-12-03T14:40:39.771Z,-15.16
2022-12-03T14:43:43.796Z,-15.17
2022-12-03T14:46:47.598Z,-15.20
2022-12-03T14:49:52.729Z,-15.16
2022-12-03T14:52:56.786Z,-15.09
2022-12-03T14:56:00.827Z,-15.06
2022-12-03T14:59:04.257Z,-15.10
2022-12-03T15:02:08.195Z,-15.05
2022-12-03T15:05:13.300Z,-15.06
2022-12-03T15:08:17.025Z,-15.07
2022-12-03T15:11:20.898Z,-14.99
2022-12-03T15:14:24.025Z,-15.05
2022-12-03T15:17:31.718Z,-15.09
2022-12-03T15:20:36.230Z,-15.07
2022-12-03T15:23:40.433Z,-15.07
2022-12-03T15:26:44.274Z,-15.12
2022-12-03T15:29:48.370Z,-15.15
2022-12-03T15:32:51.344Z,-15.16
2022-12-03T15:35:55.658Z,-15.20
2022-12-03T15:38:59.310Z,-15.24
2022-12-03T15:42:03.044Z,-15.26
2022-12-03T15:45:10.720Z,-15.22
2022-12-03T15:48:18.519Z,-15.22
2022-12-03T15:51:22.399Z,-15.26
2022-12-03T15:54:25.303Z,-15.20
2022-12-03T15:57:28.217Z,-15.22
2022-12-03T16:00:32.187Z,-15.22
2022-12-03T16:03:36.198Z,-15.19
2022-12-03T16:06:40.145Z,-15.13
2022-12-03T16:09:43.793Z,-15.19
2022-12-03T16:12:47.955Z,-15.16
2022-12-03T16:15:51.549Z,-15.17
2022-12-03T16:18:55.193Z,-15.15
2022-12-03T16:21:58.601Z,-15.20
2022-12-03T16:25:02.192Z,-15.24
2022-12-03T16:28:05.493Z,-15.26
2022-12-03T16:31:09.339Z,-15.31
2022-12-03T16:34:14.505Z,-15.36
2022-12-03T16:37:18.152Z,-15.43
2022-12-03T16:40:26.559Z,-15.45
2022-12-03T16:43:36.168Z,-15.47
2022-12-03T16:46:39.626Z,-15.48
2022-12-03T16:49:43.387Z,-15.53
2022-12-03T16:52:48.308Z,-15.54
2022-12-03T16:55:52.221Z,-15.54
2022-12-03T16:58:56.259Z,-15.57
2022-12-03T17:01:59.948Z,-15.54
2022-12-03T17:05:03.894Z,-15.53
2022-12-03T17:08:07.793Z,-15.51
2022-12-03T17:11:11.188Z,-15.57
2022-12-03T17:14:15.183Z,-15.61
2022-12-03T17:17:18.906Z,-15.62
2022-12-03T17:20:22.665Z,-15.64
2022-12-03T17:23:26.908Z,-15.68
2022-12-03T17:26:30.517Z,-15.68
2022-12-03T17:29:33.638Z,-15.71
2022-12-03T17:32:38.053Z,-15.79
2022-12-03T17:35:41.885Z,-15.82
2022-12-03T17:38:45.207Z,-15.89
2022-12-03T17:41:48.919Z,-15.99
2022-12-03T17:44:52.288Z,-15.93
2022-12-03T17:47:55.258Z,-16.00
2022-12-03T17:51:02.324Z,-15.97
2022-12-03T17:54:05.763Z,-15.95
2022-12-03T17:57:09.710Z,-16.00
2022-12-03T18:00:13.655Z,-16.00
2022-12-03T18:03:18.151Z,-16.02
2022-12-03T18:06:21.834Z,-16.06
2022-12-03T18:09:25.791Z,-16.07
2022-12-03T18:12:29.262Z,-16.07
2022-12-03T18:15:33.230Z,-16.10
2022-12-03T18:18:36.650Z,-16.07
2022-12-03T18:21:40.728Z,-16.06
2022-12-03T18:24:46.246Z,-16.04
2022-12-03T18:27:51.692Z,-16.06
2022-12-03T18:30:55.128Z,-16.12
2022-12-03T18:33:58.845Z,-16.12
2022-12-03T18:37:03.541Z,-16.13
2022-12-03T18:40:12.690Z,-16.13
2022-12-03T18:43:18.088Z,-16.12
2022-12-03T18:49:45.536Z,-16.06
2022-12-03T18:52:49.154Z,-16.04
2022-12-03T18:55:52.699Z,-16.06
2022-12-03T18:58:56.244Z,-16.06
2022-12-03T19:02:00.648Z,-16.04
2022-12-03T19:05:04.527Z,-16.12
2022-12-03T19:08:15.251Z,-16.09
2022-12-03T19:11:18.651Z,-16.09
2022-12-03T19:14:22.724Z,-16.14
2022-12-03T19:17:27.629Z,-16.21
2022-12-03T19:20:31.580Z,-16.25
2022-12-03T19:23:36.472Z,-16.25
2022-12-03T19:26:40.120Z,-16.34
2022-12-03T19:29:43.735Z,-16.41
2022-12-03T19:32:49.407Z,-16.56
2022-12-03T19:35:56.097Z,-16.62
2022-12-03T19:39:00.592Z,-16.58
2022-12-03T19:42:04.790Z,-16.58
2022-12-03T19:45:09.747Z,-16.56
2022-12-03T19:48:12.740Z,-16.53
2022-12-03T19:51:33.634Z,-16.51
2022-12-03T19:54:38.565Z,-16.51
2022-12-03T19:57:42.006Z,-16.46
2022-12-03T20:00:45.641Z,-16.46
2022-12-03T20:03:51.473Z,-16.45
2022-12-03T20:06:55.149Z,-16.49
2022-12-03T20:09:58.475Z,-16.44
2022-12-03T20:13:02.299Z,-16.42
2022-12-03T20:16:13.030Z,-16.37
2022-12-03T20:19:18.319Z,-16.37
2022-12-03T20:22:21.944Z,-16.37
2022-12-03T20:25:26.166Z,-16.37
2022-12-03T20:28:30.210Z,-16.37
2022-12-03T20:31:33.859Z,-16.35
2022-12-03T20:34:37.704Z,-16.38
2022-12-03T20:37:41.413Z,-16.33
2022-12-03T20:40:44.756Z,-16.30
2022-12-03T20:43:48.803Z,-16.24
2022-12-03T20:46:52.746Z,-16.25
2022-12-03T20:49:56.348Z,-16.24
2022-12-03T20:53:23.267Z,-16.27
2022-12-03T20:56:27.171Z,-16.33
2022-12-03T20:59:30.649Z,-16.33
2022-12-03T21:02:34.517Z,-16.38
2022-12-03T21:05:38.153Z,-16.49
2022-12-03T21:08:43.135Z,-16.56
2022-12-03T21:11:47.065Z,-16.58
2022-12-03T21:14:50.923Z,-16.58
2022-12-03T21:17:54.486Z,-16.58
2022-12-03T21:21:00.919Z,-16.55
2022-12-03T21:24:04.670Z,-16.55
2022-12-03T21:27:07.945Z,-16.48
2022-12-03T21:30:12.221Z,-16.46
2022-12-03T21:33:15.597Z,-16.41
2022-12-03T21:36:19.421Z,-16.35
2022-12-03T21:39:23.345Z,-16.28
2022-12-03T21:42:35.261Z,-16.23
2022-12-03T21:45:42.261Z,-16.21
2022-12-03T21:48:46.146Z,-16.18
2022-12-03T21:51:49.939Z,-16.18
2022-12-03T21:54:53.953Z,-16.18
2022-12-03T21:57:57.819Z,-16.20
2022-12-03T22:01:01.711Z,-16.17
2022-12-03T22:04:05.682Z,-16.20
2022-12-03T22:07:09.376Z,-16.18
2022-12-03T22:10:13.975Z,-16.17
2022-12-03T22:13:17.708Z,-16.17
2022-12-03T22:16:22.652Z,-16.18
2022-12-03T22:19:27.218Z,-16.18
2022-12-03T22:22:30.595Z,-16.18
2022-12-03T22:25:34.354Z,-16.17
2022-12-03T22:28:38.408Z,-16.17
2022-12-03T22:31:41.747Z,-16.16
2022-12-03T22:34:45.496Z,-16.21
2022-12-03T22:37:49.195Z,-16.20
2022-12-03T22:40:53.068Z,-16.16
2022-12-03T22:43:57.019Z,-16.17
2022-12-03T22:47:00.723Z,-16.16
2022-12-03T22:50:04.300Z,-16.18
2022-12-03T22:53:07.589Z,-16.18
2022-12-03T22:56:11.245Z,-16.17
2022-12-03T22:59:15.204Z,-16.20
2022-12-03T23:02:18.458Z,-16.23
2022-12-03T23:05:22.109Z,-16.21
2022-12-03T23:08:25.711Z,-16.16
2022-12-03T23:11:29.991Z,-16.16
2022-12-03T23:14:33.308Z,-16.12
2022-12-03T23:17:37.243Z,-16.03
2022-12-03T23:20:58.840Z,-16.03
2022-12-03T23:24:04.953Z,-16.10
2022-12-03T23:27:07.926Z,-16.17
2022-12-03T23:30:13.525Z,-16.25
2022-12-03T23:33:17.502Z,-16.30
2022-12-03T23:36:22.062Z,-16.40
2022-12-03T23:39:25.014Z,-16.41
2022-12-03T23:42:28.650Z,-16.44
2022-12-03T23:45:33.346Z,-16.45
2022-12-03T23:48:37.829Z,-16.44
2022-12-03T23:51:41.503Z,-16.44
2022-12-03T23:54:45.540Z,-16.42
2022-12-03T23:57:49.124Z,-16.41
